Time;durP1;ratioP1;P1;durP2;ratioP2;P2;SDS_P1;SDS_P2;PMS_P1;PMS_P2;Temp;Humidity;BMP_temperature;BMP_pressure;BME280_temperature;BME280_humidity;BME280_pressure;Samples;Min_cycle;Max_cycle;Signal;HPM_P1;HPM_P2
2023/05/05 00:02:09;;;;;;;2.40;1.95;;;;;;;;;;5139129;27;20489;-79
2023/05/05 00:04:35;;;;;;;2.92;2.13;;;;;;;;;;5157840;27;20029;-79
2023/05/05 00:07:01;;;;;;;2.38;1.98;;;;;;;;;;5157536;27;20035;-79
2023/05/05 00:09:26;;;;;;;2.00;1.70;;;;;;;;;;5157796;27;20027;-79
2023/05/05 00:11:52;;;;;;;3.88;1.95;;;;;;;;;;5139091;27;20034;-79
2023/05/05 00:14:17;;;;;;;2.08;1.88;;;;;;;;;;5121879;27;20354;-79
2023/05/05 00:16:43;;;;;;;5.20;2.00;;;;;;;;;;5157654;27;20031;-79
2023/05/05 00:19:08;;;;;;;4.90;1.88;;;;;;;;;;5138767;27;20147;-79
2023/05/05 00:21:33;;;;;;;3.80;2.00;;;;;;;;;;5157818;27;20031;-80
2023/05/05 00:23:59;;;;;;;2.53;1.88;;;;;;;;;;5157478;27;20062;-80
2023/05/05 00:26:24;;;;;;;3.05;2.35;;;;;;;;;;5157176;27;20026;-80
2023/05/05 00:28:51;;;;;;;2.33;1.90;;;;;;;;;;5157054;27;20027;-80
2023/05/05 00:31:16;;;;;;;2.53;2.03;;;;;;;;;;5157218;27;20374;-80
2023/05/05 00:33:41;;;;;;;1.92;1.70;;;;;;;;;;5121300;27;20063;-80
2023/05/05 00:36:07;;;;;;;5.07;1.88;;;;;;;;;;5138773;27;20038;-79
2023/05/05 00:38:33;;;;;;;3.67;2.08;;;;;;;;;;5138415;27;20101;-79
2023/05/05 00:40:58;;;;;;;2.88;2.10;;;;;;;;;;5138247;27;20155;-79
2023/05/05 00:43:24;;;;;;;2.45;2.00;;;;;;;;;;5138970;27;20026;-79
2023/05/05 00:46:12;;;;;;;2.00;1.80;;;;;;;;;;5156777;27;20569;-79
2023/05/05 00:48:38;;;;;;;2.40;1.88;;;;;;;;;;5138404;27;20461;-79
2023/05/05 00:51:07;;;;;;;2.75;2.15;;;;;;;;;;5137427;27;20118;-79
2023/05/05 00:53:33;;;;;;;2.13;1.83;;;;;;;;;;5138734;27;20031;-79
2023/05/05 00:55:58;;;;;;;2.08;1.88;;;;;;;;;;5138106;27;20381;-79
2023/05/05 00:58:24;;;;;;;2.28;1.80;;;;;;;;;;5137939;27;20038;-79
2023/05/05 01:00:49;;;;;;;3.65;2.00;;;;;;;;;;5156910;27;20072;-79
2023/05/05 01:03:15;;;;;;;2.60;2.13;;;;;;;;;;5100236;27;20047;-79
2023/05/05 01:05:57;;;;;;;2.47;1.85;;;;;;;;;;5135647;27;20428;-79
2023/05/05 01:08:49;;;;;;;3.45;2.00;;;;;;;;;;5135569;27;20103;-79
2023/05/05 01:11:39;;;;;;;5.70;2.15;;;;;;;;;;5134155;27;20118;-79
2023/05/05 01:14:15;;;;;;;2.13;1.92;;;;;;;;;;5134215;27;20469;-79
2023/05/05 01:16:53;;;;;;;2.13;1.92;;;;;;;;;;5134142;27;20443;-79
2023/05/05 01:19:43;;;;;;;3.38;1.90;;;;;;;;;;5134922;27;20028;-79
2023/05/05 01:22:11;;;;;;;2.92;2.10;;;;;;;;;;5134089;27;20026;-79
2023/05/05 01:25:11;;;;;;;2.10;1.70;;;;;;;;;;5134113;27;20489;-79
2023/05/05 01:28:00;;;;;;;3.70;2.13;;;;;;;;;;5119877;27;20496;-79
2023/05/05 01:30:57;;;;;;;3.22;1.92;;;;;;;;;;5135086;27;20026;-79
2023/05/05 01:33:26;;;;;;;7.57;2.08;;;;;;;;;;5135122;27;20050;-79
2023/05/05 01:35:54;;;;;;;2.20;2.00;;;;;;;;;;5133885;27;20027;-79
2023/05/05 01:38:37;;;;;;;2.22;1.98;;;;;;;;;;5133853;27;20023;-80
2023/05/05 01:41:11;;;;;;;2.30;2.10;;;;;;;;;;5133676;27;20087;-80
2023/05/05 01:43:37;;;;;;;4.07;2.00;;;;;;;;;;5134963;27;20061;-80
2023/05/05 01:46:03;;;;;;;2.45;2.00;;;;;;;;;;5133706;27;20054;-79
2023/05/05 01:48:29;;;;;;;2.60;2.10;;;;;;;;;;5135137;27;20031;-79
2023/05/05 01:50:55;;;;;;;4.80;2.00;;;;;;;;;;5133570;27;20050;-79
2023/05/05 01:53:23;;;;;;;4.57;2.40;;;;;;;;;;5133964;27;20053;-80
2023/05/05 01:55:49;;;;;;;2.67;2.22;;;;;;;;;;5133820;27;20423;-80
2023/05/05 01:58:15;;;;;;;2.50;2.00;;;;;;;;;;5116317;27;20473;-79
2023/05/05 02:00:41;;;;;;;2.75;1.95;;;;;;;;;;5134850;27;20034;-80
2023/05/05 02:03:07;;;;;;;5.68;1.98;;;;;;;;;;5133128;27;20484;-79
2023/05/05 02:05:34;;;;;;;4.63;2.17;;;;;;;;;;5133686;27;20377;-80
2023/05/05 02:08:01;;;;;;;4.85;2.20;;;;;;;;;;5134857;27;20177;-80
2023/05/05 02:10:28;;;;;;;4.88;2.20;;;;;;;;;;5116134;27;20019;-80
2023/05/05 02:12:53;;;;;;;5.57;2.08;;;;;;;;;;5133310;27;20034;-80
2023/05/05 02:15:20;;;;;;;3.83;2.17;;;;;;;;;;5099082;27;20032;-80
2023/05/05 02:17:46;;;;;;;4.90;2.30;;;;;;;;;;5116524;28;20019;-80
2023/05/05 02:20:13;;;;;;;3.45;2.30;;;;;;;;;;5133135;27;20100;-80
2023/05/05 02:22:38;;;;;;;2.58;2.00;;;;;;;;;;5116123;27;20465;-80
2023/05/05 02:25:04;;;;;;;2.50;2.30;;;;;;;;;;5134287;27;20046;-80
2023/05/05 02:27:33;;;;;;;6.82;2.47;;;;;;;;;;5133036;27;20111;-80
2023/05/05 02:30:03;;;;;;;6.07;2.35;;;;;;;;;;5133075;27;20027;-80
2023/05/05 02:32:48;;;;;;;2.28;2.08;;;;;;;;;;5134233;27;20019;-80
2023/05/05 02:35:16;;;;;;;4.30;2.20;;;;;;;;;;5133276;28;20038;-80
2023/05/05 02:37:44;;;;;;;5.63;2.10;;;;;;;;;;5133187;28;20031;-81
2023/05/05 02:40:10;;;;;;;6.28;2.30;;;;;;;;;;5133341;28;20023;-80
2023/05/05 02:42:37;;;;;;;3.35;2.35;;;;;;;;;;5116065;28;20033;-80
2023/05/05 02:45:08;;;;;;;4.85;2.67;;;;;;;;;;5133001;28;20030;-80
2023/05/05 02:47:35;;;;;;;2.95;2.30;;;;;;;;;;5133176;28;20019;-80
2023/05/05 02:50:01;;;;;;;2.80;2.20;;;;;;;;;;5133016;28;20027;-80
2023/05/05 02:52:26;;;;;;;2.78;2.35;;;;;;;;;;5115918;28;20038;-80
2023/05/05 02:54:51;;;;;;;6.90;2.50;;;;;;;;;;5133190;28;20370;-80
2023/05/05 02:57:19;;;;;;;6.45;2.30;;;;;;;;;;5116071;28;20031;-80
2023/05/05 03:00:31;;;;;;;5.10;2.17;;;;;;;;;;5133356;28;20055;-80
2023/05/05 03:03:17;;;;;;;2.75;2.00;;;;;;;;;;5114676;28;20043;-80
2023/05/05 03:05:50;;;;;;;4.85;2.22;;;;;;;;;;5133057;28;20027;-80
2023/05/05 03:08:19;;;;;;;4.72;2.20;;;;;;;;;;5115687;28;20034;-80
2023/05/05 03:11:05;;;;;;;2.90;2.30;;;;;;;;;;5132596;28;20103;-80
2023/05/05 03:13:33;;;;;;;2.20;2.00;;;;;;;;;;5132634;27;20409;-80
2023/05/05 03:16:05;;;;;;;2.60;2.40;;;;;;;;;;5119100;27;20060;-80
2023/05/05 03:18:31;;;;;;;3.67;2.33;;;;;;;;;;5138120;27;20490;-81
2023/05/05 03:20:57;;;;;;;2.60;2.30;;;;;;;;;;5136800;27;20065;-80
2023/05/05 03:23:22;;;;;;;2.70;2.30;;;;;;;;;;5119400;27;20027;-80
2023/05/05 03:25:48;;;;;;;2.40;2.20;;;;;;;;;;5137691;27;20039;-80
2023/05/05 03:28:15;;;;;;;2.92;2.58;;;;;;;;;;5136393;27;20131;-80
2023/05/05 03:30:40;;;;;;;2.75;2.28;;;;;;;;;;5136963;27;20114;-80
2023/05/05 03:33:07;;;;;;;2.30;2.10;;;;;;;;;;5136632;27;20118;-79
2023/05/05 03:35:32;;;;;;;3.42;2.60;;;;;;;;;;5136245;27;20133;-80
2023/05/05 03:37:58;;;;;;;9.25;2.42;;;;;;;;;;5137425;27;20110;-79
2023/05/05 03:40:23;;;;;;;2.97;2.25;;;;;;;;;;5136480;27;20027;-79
2023/05/05 03:42:49;;;;;;;3.28;2.53;;;;;;;;;;5136272;27;20099;-79
2023/05/05 03:45:14;;;;;;;3.25;2.13;;;;;;;;;;5137634;27;20461;-79
2023/05/05 03:47:39;;;;;;;2.40;2.20;;;;;;;;;;5137561;27;20091;-79
2023/05/05 03:50:06;;;;;;;2.38;2.17;;;;;;;;;;5137216;27;20066;-79
2023/05/05 03:52:31;;;;;;;5.53;2.30;;;;;;;;;;5137597;27;20386;-80
2023/05/05 03:54:58;;;;;;;4.47;2.33;;;;;;;;;;5135919;27;20031;-80
2023/05/05 03:57:24;;;;;;;2.53;2.20;;;;;;;;;;5137368;27;20023;-80
2023/05/05 03:59:50;;;;;;;3.78;2.03;;;;;;;;;;5135852;27;20080;-80
2023/05/05 04:02:15;;;;;;;3.95;1.90;;;;;;;;;;5144883;27;20047;-80
2023/05/05 04:04:41;;;;;;;2.78;2.22;;;;;;;;;;5139437;27;20042;-79
2023/05/05 04:07:06;;;;;;;2.30;2.10;;;;;;;;;;5157857;27;20445;-80
2023/05/05 04:09:31;;;;;;;3.67;2.35;;;;;;;;;;5104928;27;20030;-80
2023/05/05 04:11:57;;;;;;;3.20;2.28;;;;;;;;;;5157579;27;20474;-79
2023/05/05 04:14:22;;;;;;;2.35;2.15;;;;;;;;;;5139087;27;20030;-81
2023/05/05 04:16:47;;;;;;;3.75;2.15;;;;;;;;;;5157556;27;20027;-82
2023/05/05 04:19:13;;;;;;;2.58;2.20;;;;;;;;;;5157575;27;20030;-81
2023/05/05 04:21:38;;;;;;;2.35;1.98;;;;;;;;;;5139013;27;20477;-81
2023/05/05 04:24:04;;;;;;;2.28;2.08;;;;;;;;;;5158029;27;20030;-80
2023/05/05 04:26:29;;;;;;;2.22;1.80;;;;;;;;;;5158524;27;20451;-80
2023/05/05 04:28:55;;;;;;;4.70;2.03;;;;;;;;;;5157868;27;20031;-81
2023/05/05 04:31:20;;;;;;;2.25;1.90;;;;;;;;;;5122107;27;20355;-80
2023/05/05 04:33:45;;;;;;;1.85;1.75;;;;;;;;;;5139086;27;20038;-80
2023/05/05 04:36:11;;;;;;;2.25;1.88;;;;;;;;;;5121746;27;20059;-78
2023/05/05 04:38:36;;;;;;;2.40;1.85;;;;;;;;;;5139481;27;20023;-80
2023/05/05 04:41:07;;;;;;;2.10;1.80;;;;;;;;;;5147017;27;20031;-81
2023/05/05 04:43:33;;;;;;;2.55;1.98;;;;;;;;;;5148718;27;20030;-79
2023/05/05 04:45:58;;;;;;;1.80;1.70;;;;;;;;;;5125161;27;20453;-79
2023/05/05 04:48:24;;;;;;;2.47;2.00;;;;;;;;;;5157942;27;20042;-78
2023/05/05 04:50:50;;;;;;;2.67;1.60;;;;;;;;;;5157055;27;20023;-81
2023/05/05 04:53:15;;;;;;;1.70;1.60;;;;;;;;;;5157066;27;20026;-81
2023/05/05 04:55:40;;;;;;;1.83;1.60;;;;;;;;;;5157425;27;20381;-81
2023/05/05 04:58:06;;;;;;;2.50;1.80;;;;;;;;;;5138243;27;20022;-81
2023/05/05 05:00:31;;;;;;;1.88;1.70;;;;;;;;;;5156796;27;20491;-81
2023/05/05 05:02:57;;;;;;;2.03;1.80;;;;;;;;;;5120900;27;20050;-80
2023/05/05 05:05:22;;;;;;;1.70;1.60;;;;;;;;;;5156828;27;20045;-80
2023/05/05 05:07:47;;;;;;;3.10;1.75;;;;;;;;;;5157141;27;20057;-80
2023/05/05 05:10:13;;;;;;;2.03;1.65;;;;;;;;;;5138031;27;20031;-80
2023/05/05 05:12:39;;;;;;;1.70;1.55;;;;;;;;;;5137881;27;20045;-80
2023/05/05 05:15:05;;;;;;;1.75;1.65;;;;;;;;;;5137935;27;20031;-80
2023/05/05 05:17:30;;;;;;;1.77;1.67;;;;;;;;;;5156667;27;20033;-80
2023/05/05 05:20:00;;;;;;;2.00;1.70;;;;;;;;;;5138103;27;20026;-80
2023/05/05 05:22:25;;;;;;;1.83;1.70;;;;;;;;;;5156778;27;20029;-80
2023/05/05 05:24:51;;;;;;;1.75;1.65;;;;;;;;;;5120704;27;20121;-81
2023/05/05 05:27:16;;;;;;;1.48;1.38;;;;;;;;;;5120791;27;20042;-81
2023/05/05 05:29:42;;;;;;;1.70;1.60;;;;;;;;;;5137610;27;20446;-81
2023/05/05 05:32:08;;;;;;;2.05;1.50;;;;;;;;;;5120360;27;20031;-81
2023/05/05 05:34:33;;;;;;;1.60;1.50;;;;;;;;;;5137570;27;20079;-81
2023/05/05 05:36:58;;;;;;;1.60;1.50;;;;;;;;;;5137144;27;20054;-80
2023/05/05 05:39:24;;;;;;;1.98;1.50;;;;;;;;;;5120326;27;20544;-81
2023/05/05 05:41:50;;;;;;;2.50;1.70;;;;;;;;;;5156161;27;20022;-81
2023/05/05 05:44:15;;;;;;;1.73;1.63;;;;;;;;;;5156376;27;20034;-80
2023/05/05 05:46:41;;;;;;;1.70;1.60;;;;;;;;;;5156625;27;20487;-81
2023/05/05 05:49:06;;;;;;;2.10;1.48;;;;;;;;;;5139185;27;20052;-80
2023/05/05 05:51:31;;;;;;;2.40;1.42;;;;;;;;;;5140167;27;20046;-81
2023/05/05 05:53:57;;;;;;;2.67;1.60;;;;;;;;;;5163299;27;20078;-79
2023/05/05 05:56:22;;;;;;;7.20;2.20;;;;;;;;;;5159162;27;20027;-79
2023/05/05 05:58:47;;;;;;;5.45;2.40;;;;;;;;;;5120215;27;20026;-78
2023/05/05 06:01:13;;;;;;;2.47;1.88;;;;;;;;;;5155951;27;20014;-78
2023/05/05 06:03:38;;;;;;;1.70;1.60;;;;;;;;;;5156048;27;20047;-77
2023/05/05 06:06:04;;;;;;;1.95;1.70;;;;;;;;;;5155785;27;20037;-77
2023/05/05 06:08:30;;;;;;;3.40;2.13;;;;;;;;;;5137160;27;20385;-80
2023/05/05 06:10:55;;;;;;;4.10;2.55;;;;;;;;;;5155623;27;20030;-79
2023/05/05 06:13:20;;;;;;;3.20;1.75;;;;;;;;;;5120088;27;20122;-80
2023/05/05 06:15:46;;;;;;;4.30;2.20;;;;;;;;;;5120161;27;20031;-84
2023/05/05 06:18:11;;;;;;;7.93;2.63;;;;;;;;;;5137396;27;20034;-85
2023/05/05 06:20:37;;;;;;;6.28;2.20;;;;;;;;;;5155316;27;20026;-85
2023/05/05 06:23:02;;;;;;;4.38;2.05;;;;;;;;;;5119631;27;20389;-84
2023/05/05 06:25:27;;;;;;;5.20;2.15;;;;;;;;;;5136838;27;20031;-85
2023/05/05 06:27:53;;;;;;;3.20;1.80;;;;;;;;;;5137193;27;20366;-85
2023/05/05 06:30:18;;;;;;;9.07;2.60;;;;;;;;;;5137055;27;20033;-84
2023/05/05 06:32:44;;;;;;;4.78;2.10;;;;;;;;;;5103745;27;20019;-83
2023/05/05 06:35:09;;;;;;;4.78;2.10;;;;;;;;;;5120119;27;20030;-84
2023/05/05 06:37:35;;;;;;;6.30;2.90;;;;;;;;;;5136879;27;20477;-85
2023/05/05 06:40:00;;;;;;;5.28;2.38;;;;;;;;;;5137000;27;20034;-85
2023/05/05 06:42:25;;;;;;;4.53;2.20;;;;;;;;;;5119846;27;20038;-85
2023/05/05 06:44:51;;;;;;;5.03;2.20;;;;;;;;;;5136799;27;20030;-85
2023/05/05 06:47:16;;;;;;;5.03;2.30;;;;;;;;;;5102639;27;20026;-85
2023/05/05 06:49:42;;;;;;;7.60;2.50;;;;;;;;;;5156575;27;20121;-85
2023/05/05 06:52:07;;;;;;;7.32;2.05;;;;;;;;;;5159266;27;20031;-88
2023/05/05 06:54:32;;;;;;;4.93;1.90;;;;;;;;;;5159545;27;20377;-84
2023/05/05 06:56:58;;;;;;;30.52;2.40;;;;;;;;;;5124492;27;20029;-86
2023/05/05 06:59:23;;;;;;;2.85;1.83;;;;;;;;;;5140763;27;20509;-82
2023/05/05 07:01:50;;;;;;;5.03;1.92;;;;;;;;;;5140813;27;20015;-84
2023/05/05 07:04:15;;;;;;;4.95;2.00;;;;;;;;;;5141089;27;20030;-84
2023/05/05 07:06:41;;;;;;;5.72;2.15;;;;;;;;;;5123468;27;20030;-83
2023/05/05 07:09:06;;;;;;;10.57;1.92;;;;;;;;;;5159525;27;20030;-83
2023/05/05 07:11:32;;;;;;;7.78;2.05;;;;;;;;;;5141136;27;20117;-82
2023/05/05 07:13:57;;;;;;;6.68;1.92;;;;;;;;;;5142663;27;20022;-83
2023/05/05 07:16:24;;;;;;;4.32;2.25;;;;;;;;;;5158961;27;20545;-83
2023/05/05 07:18:49;;;;;;;4.43;2.08;;;;;;;;;;5140548;27;20086;-83
2023/05/05 07:21:15;;;;;;;4.68;1.95;;;;;;;;;;5140216;27;20031;-83
2023/05/05 07:23:40;;;;;;;6.32;2.30;;;;;;;;;;5159279;27;20469;-83
2023/05/05 07:26:06;;;;;;;7.90;1.98;;;;;;;;;;5140720;27;20034;-85
2023/05/05 07:28:31;;;;;;;6.25;1.98;;;;;;;;;;5140564;27;20473;-83
2023/05/05 07:30:57;;;;;;;6.75;1.85;;;;;;;;;;5141900;27;20038;-84
2023/05/05 07:33:22;;;;;;;2.83;1.95;;;;;;;;;;5158850;27;20030;-82
2023/05/05 07:35:47;;;;;;;4.93;1.83;;;;;;;;;;5158831;27;20034;-81
2023/05/05 07:38:13;;;;;;;3.30;1.70;;;;;;;;;;5158565;27;20366;-82
2023/05/05 07:40:38;;;;;;;6.07;2.22;;;;;;;;;;5140195;27;20054;-85
2023/05/05 07:43:03;;;;;;;3.97;1.67;;;;;;;;;;5139920;27;20499;-82
2023/05/05 07:45:30;;;;;;;6.20;1.80;;;;;;;;;;5158420;27;20026;-83
2023/05/05 07:47:56;;;;;;;4.53;1.88;;;;;;;;;;5139837;27;20022;-84
2023/05/05 07:50:22;;;;;;;2.88;1.70;;;;;;;;;;5139695;27;20029;-83
2023/05/05 07:52:47;;;;;;;2.42;1.70;;;;;;;;;;5158399;27;20472;-84
2023/05/05 07:55:15;;;;;;;4.88;2.15;;;;;;;;;;5140249;27;20031;-82
2023/05/05 07:57:41;;;;;;;3.88;1.70;;;;;;;;;;5141092;27;20095;-83
2023/05/05 08:00:07;;;;;;;4.78;2.03;;;;;;;;;;5122223;27;20022;-83
2023/05/05 08:02:32;;;;;;;7.72;1.98;;;;;;;;;;5157093;27;20109;-84
2023/05/05 08:04:57;;;;;;;3.95;1.70;;;;;;;;;;5121429;27;20023;-84
2023/05/05 08:07:23;;;;;;;4.65;1.65;;;;;;;;;;5156887;27;20076;-85
2023/05/05 08:09:48;;;;;;;4.55;1.73;;;;;;;;;;5121164;27;20054;-84
2023/05/05 08:12:14;;;;;;;6.82;1.58;;;;;;;;;;5138335;27;20031;-84
2023/05/05 08:14:41;;;;;;;2.03;1.50;;;;;;;;;;5138145;27;20430;-83
2023/05/05 08:17:07;;;;;;;3.78;1.52;;;;;;;;;;5138464;27;20105;-82
2023/05/05 08:19:32;;;;;;;6.78;2.05;;;;;;;;;;5157488;27;20163;-83
2023/05/05 08:21:57;;;;;;;13.73;2.45;;;;;;;;;;5138087;27;20026;-84
2023/05/05 08:24:23;;;;;;;6.32;1.92;;;;;;;;;;5105894;27;20037;-83
2023/05/05 08:26:48;;;;;;;9.45;2.13;;;;;;;;;;5124477;27;20365;-82
2023/05/05 08:29:13;;;;;;;6.97;1.98;;;;;;;;;;5121295;27;20060;-82
2023/05/05 08:31:39;;;;;;;3.85;1.85;;;;;;;;;;5138550;27;20030;-81
2023/05/05 08:34:05;;;;;;;5.50;1.85;;;;;;;;;;5157793;27;20023;-83
2023/05/05 08:36:31;;;;;;;6.30;1.90;;;;;;;;;;5138435;27;20031;-83
2023/05/05 08:38:57;;;;;;;6.43;1.70;;;;;;;;;;5121043;27;20035;-83
2023/05/05 08:41:22;;;;;;;2.67;1.80;;;;;;;;;;5121034;27;20370;-82
2023/05/05 08:43:49;;;;;;;6.10;1.92;;;;;;;;;;5120365;27;20106;-82
2023/05/05 08:46:15;;;;;;;4.07;1.90;;;;;;;;;;5138788;27;20078;-81
2023/05/05 08:48:42;;;;;;;8.15;1.90;;;;;;;;;;5120736;27;20023;-82
2023/05/05 08:51:08;;;;;;;3.00;1.48;;;;;;;;;;5137657;27;20030;-82
2023/05/05 08:53:45;;;;;;;9.48;1.60;;;;;;;;;;5138003;27;20022;-82
2023/05/05 08:56:13;;;;;;;4.90;1.60;;;;;;;;;;5120489;27;20536;-82
2023/05/05 08:58:40;;;;;;;4.82;1.90;;;;;;;;;;5120556;27;20118;-82
2023/05/05 09:01:06;;;;;;;3.30;1.83;;;;;;;;;;5137675;27;20018;-82
2023/05/05 09:03:32;;;;;;;3.10;1.80;;;;;;;;;;5091549;27;1306810;-82
2023/05/05 09:05:58;;;;;;;3.72;1.73;;;;;;;;;;5138558;27;20496;-82
2023/05/05 09:08:23;;;;;;;4.28;1.80;;;;;;;;;;5121403;27;20042;-82
2023/05/05 09:10:50;;;;;;;1.98;1.60;;;;;;;;;;5157160;27;20030;-82
2023/05/05 09:13:15;;;;;;;2.15;1.45;;;;;;;;;;5137393;27;20465;-82
2023/05/05 09:15:41;;;;;;;2.72;1.70;;;;;;;;;;5121616;27;20101;-82
2023/05/05 09:18:08;;;;;;;1.77;1.30;;;;;;;;;;5138045;27;20063;-83
2023/05/05 09:20:35;;;;;;;1.92;1.23;;;;;;;;;;5157224;27;20030;-84
2023/05/05 09:23:11;;;;;;;6.13;2.15;;;;;;;;;;5138468;27;20354;-84
2023/05/05 09:25:37;;;;;;;7.15;2.05;;;;;;;;;;5137923;27;20034;-81
2023/05/05 09:28:16;;;;;;;7.80;2.15;;;;;;;;;;5120734;27;20026;-80
2023/05/05 09:30:44;;;;;;;6.00;1.73;;;;;;;;;;5137944;27;20058;-81
2023/05/05 09:33:09;;;;;;;6.95;1.95;;;;;;;;;;5137614;27;20026;-81
2023/05/05 09:35:51;;;;;;;3.22;1.75;;;;;;;;;;5120323;27;20049;-82
2023/05/05 09:38:18;;;;;;;4.80;1.40;;;;;;;;;;5137186;27;20037;-82
2023/05/05 09:40:48;;;;;;;2.42;1.40;;;;;;;;;;5137454;27;20098;-82
2023/05/05 09:43:15;;;;;;;4.47;1.73;;;;;;;;;;5137751;27;20023;-82
2023/05/05 09:45:40;;;;;;;3.67;1.70;;;;;;;;;;5120271;27;20025;-82
2023/05/05 09:48:06;;;;;;;5.85;1.70;;;;;;;;;;5120157;27;20389;-81
2023/05/05 09:50:42;;;;;;;1.80;1.50;;;;;;;;;;5103212;27;20038;-82
2023/05/05 09:53:09;;;;;;;4.10;1.95;;;;;;;;;;5137392;27;20079;-81
2023/05/05 09:55:34;;;;;;;3.17;1.50;;;;;;;;;;5120076;27;20067;-81
2023/05/05 09:58:18;;;;;;;4.50;1.73;;;;;;;;;;5155991;27;20423;-81
2023/05/05 10:00:45;;;;;;;;;;;;;;;;;;5156132;27;20469;-81
2023/05/05 10:03:10;;;;;;;8.73;2.88;;;;;;;;;;5137747;27;20349;-81
2023/05/05 10:05:57;;;;;;;5.13;1.58;;;;;;;;;;5137430;27;20102;-81
2023/05/05 10:08:28;;;;;;;6.80;1.55;;;;;;;;;;5137163;27;20503;-80
2023/05/05 10:11:03;;;;;;;3.53;1.48;;;;;;;;;;5155682;27;20076;-81
2023/05/05 10:13:29;;;;;;;8.45;2.35;;;;;;;;;;5137451;27;20496;-82
2023/05/05 10:15:55;;;;;;;9.95;2.67;;;;;;;;;;5137408;27;20109;-81
2023/05/05 10:18:26;;;;;;;14.93;4.03;;;;;;;;;;5120175;27;20109;-81
2023/05/05 10:20:55;;;;;;;9.90;3.42;;;;;;;;;;5120483;27;20019;-82
2023/05/05 10:23:22;;;;;;;9.57;2.95;;;;;;;;;;5155557;27;20465;-81
2023/05/05 10:26:05;;;;;;;8.02;3.42;;;;;;;;;;5119109;27;20022;-82
2023/05/05 10:28:32;;;;;;;11.05;2.90;;;;;;;;;;5137647;27;20026;-83
2023/05/05 10:31:00;;;;;;;10.73;3.25;;;;;;;;;;5137059;27;20019;-81
2023/05/05 10:33:33;;;;;;;19.30;2.95;;;;;;;;;;5155482;27;20023;-85
2023/05/05 10:36:04;;;;;;;5.95;2.60;;;;;;;;;;5137152;27;20027;-82
2023/05/05 10:38:30;;;;;;;4.45;2.17;;;;;;;;;;5155106;27;20033;-80
2023/05/05 10:41:01;;;;;;;3.70;2.10;;;;;;;;;;5119293;27;20023;-81
2023/05/05 10:43:30;;;;;;;4.93;2.17;;;;;;;;;;5136914;27;20030;-80
2023/05/05 10:45:56;;;;;;;6.97;1.98;;;;;;;;;;5119205;27;20027;-80
2023/05/05 10:48:28;;;;;;;7.45;1.90;;;;;;;;;;5136997;27;20477;-82
2023/05/05 10:51:01;;;;;;;3.92;1.70;;;;;;;;;;5134683;27;20331;-81
2023/05/05 10:53:38;;;;;;;5.50;2.40;;;;;;;;;;5136532;27;20022;-81
2023/05/05 10:56:20;;;;;;;6.88;2.08;;;;;;;;;;5136463;27;20106;-81
2023/05/05 10:58:46;;;;;;;8.95;1.83;;;;;;;;;;5119303;27;20071;-81
2023/05/05 11:01:11;;;;;;;2.85;1.63;;;;;;;;;;5136603;27;20609;-81
2023/05/05 11:03:37;;;;;;;8.38;1.55;;;;;;;;;;5132818;28;20055;-80
2023/05/05 11:06:02;;;;;;;4.60;1.85;;;;;;;;;;5116361;28;20099;-81
2023/05/05 11:08:28;;;;;;;2.65;1.50;;;;;;;;;;5134888;27;20026;-80
2023/05/05 11:10:53;;;;;;;4.70;1.50;;;;;;;;;;5101155;28;20122;-82
2023/05/05 11:13:19;;;;;;;5.05;1.80;;;;;;;;;;5118034;28;20034;-81
2023/05/05 11:15:45;;;;;;;5.50;1.73;;;;;;;;;;5136227;28;20030;-80
2023/05/05 11:18:34;;;;;;;4.47;1.60;;;;;;;;;;5135846;28;20051;-81
2023/05/05 11:21:00;;;;;;;3.25;1.30;;;;;;;;;;5137476;28;20019;-82
2023/05/05 11:23:25;;;;;;;5.70;1.52;;;;;;;;;;5136904;28;20027;-81
2023/05/05 11:25:52;;;;;;;5.20;1.40;;;;;;;;;;5138747;27;20481;-85
2023/05/05 11:28:20;;;;;;;4.97;1.17;;;;;;;;;;5135956;28;20457;-82
2023/05/05 11:30:54;;;;;;;3.15;1.55;;;;;;;;;;5147680;28;20035;-82
2023/05/05 11:33:30;;;;;;;2.53;1.15;;;;;;;;;;5151564;27;20023;-83
2023/05/05 11:36:00;;;;;;;2.13;1.30;;;;;;;;;;5148429;27;20015;-83
2023/05/05 11:38:37;;;;;;;2.33;1.33;;;;;;;;;;5143734;27;20110;-83
2023/05/05 11:41:32;;;;;;;3.15;1.45;;;;;;;;;;5145926;27;20027;-83
2023/05/05 11:44:10;;;;;;;3.03;1.08;;;;;;;;;;5138804;27;20104;-82
2023/05/05 11:46:35;;;;;;;3.20;1.27;;;;;;;;;;5140377;27;20030;-82
2023/05/05 11:49:00;;;;;;;4.53;1.23;;;;;;;;;;5121304;27;20027;-81
2023/05/05 11:51:27;;;;;;;2.45;1.48;;;;;;;;;;5137590;27;20027;-82
2023/05/05 11:53:52;;;;;;;3.30;1.15;;;;;;;;;;5137968;27;20035;-83
2023/05/05 11:56:20;;;;;;;3.67;1.40;;;;;;;;;;5138124;27;20023;-82
2023/05/05 11:58:48;;;;;;;2.13;1.00;;;;;;;;;;5136858;27;20050;-82
2023/05/05 12:01:14;;;;;;;1.70;1.10;;;;;;;;;;5136552;27;20031;-82
2023/05/05 12:03:40;;;;;;;3.63;1.17;;;;;;;;;;5119251;27;20127;-82
2023/05/05 12:06:06;;;;;;;2.60;1.10;;;;;;;;;;5136043;27;20027;-82
2023/05/05 12:08:36;;;;;;;4.13;1.10;;;;;;;;;;5137395;27;20035;-81
2023/05/05 12:11:09;;;;;;;4.20;1.15;;;;;;;;;;5135579;27;20068;-82
2023/05/05 12:13:34;;;;;;;2.70;0.93;;;;;;;;;;5118269;27;20031;-81
2023/05/05 12:16:10;;;;;;;1.48;1.00;;;;;;;;;;5101504;27;20057;-81
2023/05/05 12:18:35;;;;;;;2.38;1.10;;;;;;;;;;5118631;27;20023;-81
2023/05/05 12:21:02;;;;;;;7.07;0.90;;;;;;;;;;5118709;27;20484;-81
2023/05/05 12:23:28;;;;;;;2.00;0.98;;;;;;;;;;5118594;27;20106;-82
2023/05/05 12:25:54;;;;;;;1.20;0.90;;;;;;;;;;5119047;27;20402;-82
2023/05/05 12:28:20;;;;;;;3.15;1.08;;;;;;;;;;5100828;27;20093;-82
2023/05/05 12:30:58;;;;;;;4.50;1.10;;;;;;;;;;5118624;27;20457;-82
2023/05/05 12:33:23;;;;;;;1.67;1.10;;;;;;;;;;5119006;27;20031;-81
2023/05/05 12:35:49;;;;;;;2.45;1.10;;;;;;;;;;5137473;27;20030;-82
2023/05/05 12:38:15;;;;;;;1.90;1.13;;;;;;;;;;5114131;27;20019;-81
2023/05/05 12:40:48;;;;;;;4.47;1.15;;;;;;;;;;5118656;27;20079;-84
2023/05/05 12:43:34;;;;;;;2.53;1.13;;;;;;;;;;5104406;27;20031;-84
2023/05/05 12:46:08;;;;;;;6.13;1.50;;;;;;;;;;5122447;27;20481;-82
2023/05/05 12:48:36;;;;;;;3.72;1.40;;;;;;;;;;5121965;27;20087;-81
2023/05/05 12:51:34;;;;;;;4.15;1.15;;;;;;;;;;5121253;27;20027;-81
2023/05/05 12:54:18;;;;;;;3.35;1.33;;;;;;;;;;5100229;27;20047;-81
2023/05/05 12:56:45;;;;;;;3.70;0.90;;;;;;;;;;5103203;27;20038;-80
2023/05/05 12:59:28;;;;;;;3.83;1.20;;;;;;;;;;5104003;27;20451;-81
2023/05/05 13:01:55;;;;;;;1.27;1.00;;;;;;;;;;5120634;27;20032;-81
2023/05/05 13:04:22;;;;;;;0.98;0.90;;;;;;;;;;5120280;27;20026;-81
2023/05/05 13:06:48;;;;;;;3.88;1.10;;;;;;;;;;5106340;27;20077;-81
2023/05/05 13:09:29;;;;;;;2.33;1.13;;;;;;;;;;5119754;27;20027;-80
2023/05/05 13:11:55;;;;;;;3.65;1.00;;;;;;;;;;5122351;27;20035;-81
2023/05/05 13:14:21;;;;;;;6.97;1.45;;;;;;;;;;5138532;27;20388;-81
2023/05/05 13:16:46;;;;;;;6.30;1.40;;;;;;;;;;5100421;27;20050;-83
2023/05/05 13:19:12;;;;;;;12.88;1.45;;;;;;;;;;5119278;27;20070;-83
2023/05/05 13:21:37;;;;;;;4.00;1.27;;;;;;;;;;5137874;27;20019;-82
2023/05/05 13:24:03;;;;;;;9.35;1.20;;;;;;;;;;5122306;27;20039;-83
2023/05/05 13:26:28;;;;;;;6.95;1.20;;;;;;;;;;5104731;27;20068;-88
2023/05/05 13:28:54;;;;;;;3.40;1.20;;;;;;;;;;5102693;27;20029;-85
2023/05/05 13:31:19;;;;;;;4.57;1.50;;;;;;;;;;5140075;27;20079;-82
2023/05/05 13:33:45;;;;;;;3.97;1.45;;;;;;;;;;5122167;27;20079;-83
2023/05/05 13:36:10;;;;;;;3.38;1.10;;;;;;;;;;5137147;27;20031;-86
2023/05/05 13:38:36;;;;;;;2.35;1.20;;;;;;;;;;5120993;28;20051;-85
2023/05/05 13:41:01;;;;;;;5.57;1.27;;;;;;;;;;5124465;27;20057;-85
2023/05/05 13:43:27;;;;;;;1.90;1.25;;;;;;;;;;5104943;27;20027;-83
2023/05/05 13:45:53;;;;;;;3.88;1.10;;;;;;;;;;5104404;27;20038;-84
2023/05/05 13:48:18;;;;;;;6.30;1.60;;;;;;;;;;5105084;27;20042;-84
2023/05/05 13:50:44;;;;;;;2.20;1.30;;;;;;;;;;5104773;27;20058;-84
2023/05/05 13:53:09;;;;;;;2.63;1.05;;;;;;;;;;5104032;27;20042;-85
2023/05/05 13:55:35;;;;;;;5.00;1.38;;;;;;;;;;5105691;27;20037;-84
2023/05/05 13:58:00;;;;;;;5.22;1.20;;;;;;;;;;5104830;27;20099;-84
2023/05/05 14:00:26;;;;;;;5.35;1.25;;;;;;;;;;5140845;27;20027;-85
2023/05/05 14:02:52;;;;;;;4.20;1.17;;;;;;;;;;5122076;27;20054;-84
2023/05/05 14:05:18;;;;;;;2.47;1.10;;;;;;;;;;5122433;27;20027;-84
2023/05/05 14:07:44;;;;;;;4.75;1.20;;;;;;;;;;5120217;27;20474;-85
2023/05/05 14:10:10;;;;;;;2.53;1.20;;;;;;;;;;5100151;28;20464;-84
2023/05/05 14:12:35;;;;;;;2.20;1.05;;;;;;;;;;5115430;28;20108;-87
2023/05/05 14:15:01;;;;;;;3.17;1.20;;;;;;;;;;5127090;27;20029;-88
2023/05/05 14:17:26;;;;;;;2.63;1.10;;;;;;;;;;5117901;27;20030;-84
2023/05/05 14:19:52;;;;;;;2.88;1.15;;;;;;;;;;5137458;27;20031;-84
2023/05/05 14:22:17;;;;;;;2.95;1.00;;;;;;;;;;5134933;27;20019;-88
2023/05/05 14:24:43;;;;;;;3.10;1.30;;;;;;;;;;5134684;27;20393;-86
2023/05/05 14:27:08;;;;;;;4.63;1.50;;;;;;;;;;5099330;27;20023;-87
2023/05/05 14:29:33;;;;;;;3.30;1.33;;;;;;;;;;5134634;27;20055;-87
2023/05/05 14:31:59;;;;;;;6.75;1.52;;;;;;;;;;5132882;27;20027;-84
2023/05/05 14:34:24;;;;;;;2.35;1.10;;;;;;;;;;5134413;27;20046;-83
2023/05/05 14:36:49;;;;;;;2.45;1.30;;;;;;;;;;5117801;28;20023;-82
2023/05/05 14:39:15;;;;;;;5.80;1.38;;;;;;;;;;5116052;28;20054;-84
2023/05/05 14:41:40;;;;;;;5.95;1.38;;;;;;;;;;5118575;28;20110;-81
2023/05/05 14:44:06;;;;;;;6.40;1.63;;;;;;;;;;5135298;28;20490;-84
2023/05/05 14:46:31;;;;;;;13.25;2.60;;;;;;;;;;5137939;28;20139;-83
2023/05/05 14:48:57;;;;;;;10.93;2.28;;;;;;;;;;5118761;28;20043;-86